Toyomasa Maru — JJ3927 — position and weather

sailwx.info

Track history (hours):
 
Tides and Currents Weather Stations Pressure Air Temp Water Temp Dewpoint Dewpoint Depression Visibility Wind Speed Wind Dir Waves Ship Positions

Toyomasa Maru

Last reported at 2017-Nov-19 23:30 UTC. Time now 2017-Nov-22 22:15 UTC.
Position N 35°36' E 140°05'.

Length 101 m; draft 6.9 m.

Type: Tanker. MMSI: 431300401.

Date/timePositionNaut miles runAvg speedWind from/ knotsBaromVisibWave heightAir tempDewpointWater temp
2017-Nov-19 23:30N 35°36' E 140°05'3 4.8
2017-Nov-19 22:48N 35°34' E 140°01'2 8.5
2017-Nov-19 22:31N 35°32' E 139°59'2 0.1
2017-Nov-19 06:15N 35°30' E 139°59'2 0.3
2017-Nov-19 00:49N 35°29' E 140°01'0 1.3
2017-Nov-19 00:30N 35°29' E 140°00'2 0.6
2017-Nov-18 21:07N 35°30' E 139°58'0 0.0
2017-Nov-18 18:09N 35°30' E 139°58'0 0.2
2017-Nov-18 17:54N 35°30' E 139°58'0 0.1
2017-Nov-18 17:24N 35°30' E 139°58'0 0.0
2017-Nov-18 16:59N 35°30' E 139°58'0 0.0
2017-Nov-18 16:25N 35°30' E 139°58'0 0.0
2017-Nov-18 12:10N 35°30' E 139°58'1 5.3
2017-Nov-18 12:00N 35°31' E 139°58'1 0.0
2017-Nov-17 11:33N 35°30' E 139°59'1 7.0
2017-Nov-17 11:23N 35°29' E 140°00'1 0.1
2017-Nov-17 05:48N 35°29' E 140°01'2 6.3
2017-Nov-17 05:30N 35°30' E 139°59'3 0.1
2017-Nov-16 04:03N 35°29' E 139°55'0 9.5
2017-Nov-16 04:00N 35°29' E 139°55'1 0.1
2017-Nov-15 14:07N 35°29' E 139°54'0 1.9
2017-Nov-15 14:00N 35°29' E 139°54'5 9.1
2017-Nov-15 13:29N 35°29' E 140°00'1 0.1
2017-Nov-15 08:10N 35°29' E 140°01'0 0.5
2017-Nov-15 07:51N 35°29' E 140°01'3 1.1
2017-Nov-15 05:27N 35°30' E 139°58'511.8
2017-Nov-15 05:00N 35°28' E 139°51'612.7
2017-Nov-15 04:30N 35°24' E 139°46'611.7
2017-Nov-15 04:00N 35°18' E 139°45'612.2
2017-Nov-15 03:30N 35°12' E 139°47'613.0
2017-Nov-15 03:00N 35°06' E 139°45'612.8
2017-Nov-15 02:30N 34°60' E 139°42'712.1
2017-Nov-15 01:57N 34°54' E 139°47'  
2017-Nov-10 10:38N 34°57' E 139°43'412.4
2017-Nov-10 10:19N 35°01' E 139°42'412.7
2017-Nov-10 10:00N 35°04' E 139°43'612.5
2017-Nov-10 09:30N 35°10' E 139°46'611.8
2017-Nov-10 09:00N 35°16' E 139°46'611.4
2017-Nov-10 08:30N 35°21' E 139°42'510.8
2017-Nov-10 08:00N 35°26' E 139°46'612.5
2017-Nov-10 07:30N 35°30' E 139°52'611.4
2017-Nov-10 07:00N 35°30' E 139°59'  
Track history (hours):
 
Tides and Currents Weather Stations Pressure Air Temp Water Temp Dewpoint Dewpoint Depression Visibility Wind Speed Wind Dir Waves Ship Positions

Toyomasa Maru

Last reported at 2017-Nov-19 23:30 UTC. Time now 2017-Nov-22 22:15 UTC.
Position N 35°36' E 140°05'.

Length 101 m; draft 6.9 m.

Type: Tanker. MMSI: 431300401.

Date/timePositionNaut miles runAvg speedWind from/ knotsBaromVisibWave heightAir tempDewpointWater temp
2017-Nov-19 23:30N 35°36' E 140°05'3 4.8
2017-Nov-19 22:48N 35°34' E 140°01'2 8.5
2017-Nov-19 22:31N 35°32' E 139°59'2 0.1
2017-Nov-19 06:15N 35°30' E 139°59'2 0.3
2017-Nov-19 00:49N 35°29' E 140°01'0 1.3
2017-Nov-19 00:30N 35°29' E 140°00'2 0.6
2017-Nov-18 21:07N 35°30' E 139°58'0 0.0
2017-Nov-18 18:09N 35°30' E 139°58'0 0.2
2017-Nov-18 17:54N 35°30' E 139°58'0 0.1
2017-Nov-18 17:24N 35°30' E 139°58'0 0.0
2017-Nov-18 16:59N 35°30' E 139°58'0 0.0
2017-Nov-18 16:25N 35°30' E 139°58'0 0.0
2017-Nov-18 12:10N 35°30' E 139°58'1 5.3
2017-Nov-18 12:00N 35°31' E 139°58'1 0.0
2017-Nov-17 11:33N 35°30' E 139°59'1 7.0
2017-Nov-17 11:23N 35°29' E 140°00'1 0.1
2017-Nov-17 05:48N 35°29' E 140°01'2 6.3
2017-Nov-17 05:30N 35°30' E 139°59'3 0.1
2017-Nov-16 04:03N 35°29' E 139°55'0 9.5
2017-Nov-16 04:00N 35°29' E 139°55'1 0.1
2017-Nov-15 14:07N 35°29' E 139°54'0 1.9
2017-Nov-15 14:00N 35°29' E 139°54'5 9.1
2017-Nov-15 13:29N 35°29' E 140°00'1 0.1
2017-Nov-15 08:10N 35°29' E 140°01'0 0.5
2017-Nov-15 07:51N 35°29' E 140°01'3 1.1
2017-Nov-15 05:27N 35°30' E 139°58'511.8
2017-Nov-15 05:00N 35°28' E 139°51'612.7
2017-Nov-15 04:30N 35°24' E 139°46'611.7
2017-Nov-15 04:00N 35°18' E 139°45'612.2
2017-Nov-15 03:30N 35°12' E 139°47'613.0
2017-Nov-15 03:00N 35°06' E 139°45'612.8
2017-Nov-15 02:30N 34°60' E 139°42'712.1
2017-Nov-15 01:57N 34°54' E 139°47'  
2017-Nov-10 10:38N 34°57' E 139°43'412.4
2017-Nov-10 10:19N 35°01' E 139°42'412.7
2017-Nov-10 10:00N 35°04' E 139°43'612.5
2017-Nov-10 09:30N 35°10' E 139°46'611.8
2017-Nov-10 09:00N 35°16' E 139°46'611.4
2017-Nov-10 08:30N 35°21' E 139°42'510.8
2017-Nov-10 08:00N 35°26' E 139°46'612.5
2017-Nov-10 07:30N 35°30' E 139°52'611.4
2017-Nov-10 07:00N 35°30' E 139°59'  

Dump ship's entire track history